createdAt,value
2023-02-19T00:01:42.971Z,13.10
2023-02-19T00:04:18.751Z,13.10
2023-02-19T00:06:46.978Z,13.00
2023-02-19T00:09:18.131Z,13.10
2023-02-19T00:11:46.331Z,13.00
2023-02-19T00:14:19.553Z,13.00
2023-02-19T00:16:47.016Z,13.00
2023-02-19T00:19:17.136Z,13.00
2023-02-19T00:21:44.056Z,13.00
2023-02-19T00:24:12.924Z,13.00
2023-02-19T00:26:41.469Z,12.90
2023-02-19T00:29:12.328Z,12.90
2023-02-19T00:31:40.388Z,12.90
2023-02-19T00:34:08.194Z,12.90
2023-02-19T00:36:37.809Z,12.90
2023-02-19T00:39:07.313Z,13.00
2023-02-19T00:41:34.519Z,12.90
2023-02-19T00:44:07.430Z,12.90
2023-02-19T00:46:35.558Z,12.90
2023-02-19T00:49:04.901Z,12.90
2023-02-19T00:51:35.090Z,12.80
2023-02-19T00:54:02.887Z,12.80
2023-02-19T00:56:29.885Z,12.80
2023-02-19T00:58:57.273Z,12.70
2023-02-19T01:01:24.484Z,12.80
2023-02-19T01:03:52.183Z,12.70
2023-02-19T01:06:20.714Z,12.70
2023-02-19T01:08:48.028Z,12.70
2023-02-19T01:11:15.790Z,12.60
2023-02-19T01:13:43.203Z,12.70
2023-02-19T01:16:21.667Z,12.60
2023-02-19T01:18:49.622Z,12.60
2023-02-19T01:21:22.113Z,12.60
2023-02-19T01:23:50.548Z,12.60
2023-02-19T01:26:23.099Z,12.60
2023-02-19T01:28:50.524Z,12.60
2023-02-19T01:31:22.054Z,12.60
2023-02-19T01:33:52.957Z,12.60
2023-02-19T01:36:21.383Z,12.50
2023-02-19T01:38:48.641Z,12.50
2023-02-19T01:41:18.638Z,12.50
2023-02-19T01:44:05.281Z,12.50
2023-02-19T01:46:40.616Z,12.50
2023-02-19T01:49:24.710Z,12.40
2023-02-19T01:52:00.220Z,12.40
2023-02-19T01:54:30.435Z,12.40
2023-02-19T01:56:58.934Z,12.40
2023-02-19T01:59:26.322Z,12.40
2023-02-19T02:01:53.429Z,12.30
2023-02-19T02:04:20.613Z,12.30
2023-02-19T02:06:56.730Z,12.30
2023-02-19T02:09:46.957Z,12.30
2023-02-19T02:12:14.360Z,12.30
2023-02-19T02:14:56.060Z,12.30
2023-02-19T02:17:38.722Z,12.20
2023-02-19T02:20:25.203Z,12.20
2023-02-19T02:23:28.961Z,12.10
2023-02-19T02:26:33.973Z,12.10
2023-02-19T02:29:35.802Z,12.10
2023-02-19T02:32:17.638Z,12.10
2023-02-19T02:34:59.991Z,12.00
2023-02-19T02:37:30.184Z,12.10
2023-02-19T02:39:58.810Z,12.00
2023-02-19T02:42:28.563Z,12.00
2023-02-19T02:45:36.735Z,11.90
2023-02-19T02:48:18.931Z,11.90
2023-02-19T02:51:27.267Z,11.90
2023-02-19T02:54:24.850Z,11.90
2023-02-19T02:56:54.626Z,11.80
2023-02-19T02:59:25.361Z,11.70
2023-02-19T03:02:12.557Z,11.70
2023-02-19T03:05:16.545Z,11.70
2023-02-19T03:08:01.911Z,11.70
2023-02-19T03:10:41.593Z,11.70
2023-02-19T03:13:40.758Z,11.60
2023-02-19T03:16:33.006Z,11.60
2023-02-19T03:19:19.181Z,11.50
2023-02-19T03:22:03.131Z,11.50
2023-02-19T03:24:52.275Z,11.50
2023-02-19T03:27:22.050Z,11.40
2023-02-19T03:29:57.571Z,11.40
2023-02-19T03:32:35.714Z,11.40
2023-02-19T03:35:09.982Z,11.40
2023-02-19T03:38:30.548Z,11.30
2023-02-19T03:41:05.961Z,11.30
2023-02-19T03:44:01.535Z,11.30
2023-02-19T03:46:34.400Z,11.30
2023-02-19T03:49:27.213Z,11.30
2023-02-19T03:52:07.036Z,11.30
2023-02-19T03:54:43.084Z,11.30
2023-02-19T03:57:34.800Z,11.30
2023-02-19T04:00:18.169Z,11.20
2023-02-19T04:02:53.128Z,11.20
2023-02-19T04:05:26.133Z,11.20
2023-02-19T04:07:58.108Z,11.20
2023-02-19T04:10:32.073Z,11.20
2023-02-19T04:13:07.738Z,11.20
2023-02-19T04:15:36.591Z,11.20
2023-02-19T04:18:08.548Z,11.20
2023-02-19T04:20:41.068Z,11.20
2023-02-19T04:23:08.536Z,11.20
2023-02-19T04:25:38.201Z,11.10
2023-02-19T04:28:07.309Z,11.10
2023-02-19T04:30:34.354Z,11.10
2023-02-19T04:33:01.298Z,11.10
2023-02-19T04:35:28.293Z,11.10
2023-02-19T04:37:55.199Z,11.10
2023-02-19T04:40:24.254Z,11.10
2023-02-19T04:42:51.182Z,11.10
2023-02-19T04:45:18.175Z,11.10
2023-02-19T04:47:46.474Z,11.10
2023-02-19T04:50:13.649Z,11.10
2023-02-19T04:52:40.633Z,11.10
2023-02-19T04:55:08.163Z,11.10
2023-02-19T04:57:36.058Z,11.20
2023-02-19T05:00:03.816Z,11.00
2023-02-19T05:02:30.864Z,11.00
2023-02-19T05:04:57.820Z,10.90
2023-02-19T05:07:24.968Z,11.00
2023-02-19T05:09:52.006Z,11.00
2023-02-19T05:12:18.910Z,11.00
2023-02-19T05:14:45.923Z,11.10
2023-02-19T05:17:12.838Z,11.00
2023-02-19T05:19:40.457Z,10.90
2023-02-19T05:22:07.424Z,11.00
2023-02-19T05:24:36.747Z,11.00
2023-02-19T05:27:03.802Z,10.90
2023-02-19T05:29:33.839Z,10.90
2023-02-19T05:32:00.855Z,10.80
2023-02-19T05:34:27.801Z,10.80
2023-02-19T05:36:54.767Z,10.80
2023-02-19T05:39:21.763Z,10.80
2023-02-19T05:41:48.834Z,10.80
2023-02-19T05:44:15.847Z,10.70
2023-02-19T05:46:42.788Z,10.70
2023-02-19T05:49:09.714Z,10.80
2023-02-19T05:51:36.752Z,10.80
2023-02-19T05:54:04.037Z,10.80
2023-02-19T05:56:39.961Z,10.70
2023-02-19T05:59:24.587Z,10.70
2023-02-19T06:01:53.236Z,10.80
2023-02-19T06:04:22.076Z,10.80
2023-02-19T06:06:49.552Z,10.70
2023-02-19T06:09:17.377Z,10.80
2023-02-19T06:11:45.184Z,10.70
2023-02-19T06:14:13.836Z,10.80
2023-02-19T06:16:41.016Z,10.70
2023-02-19T06:19:08.550Z,10.80
2023-02-19T06:21:36.461Z,10.80
2023-02-19T06:24:10.074Z,10.90
2023-02-19T06:26:38.239Z,10.90
2023-02-19T06:29:05.222Z,10.90
2023-02-19T06:31:32.336Z,10.80
2023-02-19T06:33:59.339Z,10.90
2023-02-19T06:36:26.553Z,11.00
2023-02-19T06:38:53.574Z,10.90
2023-02-19T06:41:20.788Z,11.00
2023-02-19T06:43:47.779Z,11.00
2023-02-19T06:46:15.223Z,11.10
2023-02-19T06:48:43.937Z,11.10
2023-02-19T06:51:18.839Z,11.10
2023-02-19T06:53:46.584Z,11.20
2023-02-19T06:56:34.712Z,11.20
2023-02-19T06:59:04.427Z,11.20
2023-02-19T07:01:34.190Z,11.20
2023-02-19T07:04:01.684Z,11.20
2023-02-19T07:06:29.802Z,11.20
2023-02-19T07:08:58.255Z,11.20
2023-02-19T07:11:26.042Z,11.30
2023-02-19T07:14:01.253Z,11.30
2023-02-19T07:16:28.729Z,11.30
2023-02-19T07:19:00.124Z,11.30
2023-02-19T07:21:28.792Z,11.30
2023-02-19T07:23:55.977Z,11.40
2023-02-19T07:26:24.195Z,11.40
2023-02-19T07:28:52.581Z,11.40
2023-02-19T07:31:21.526Z,11.40
2023-02-19T07:33:49.160Z,11.40
2023-02-19T07:36:18.040Z,11.50
2023-02-19T07:38:45.600Z,11.50
2023-02-19T07:41:14.197Z,11.50
2023-02-19T07:43:41.294Z,11.60
2023-02-19T07:46:10.871Z,11.60
2023-02-19T07:48:39.158Z,11.70
2023-02-19T07:51:08.055Z,11.70
2023-02-19T07:53:37.804Z,11.70
2023-02-19T07:56:07.519Z,11.80
2023-02-19T07:58:34.602Z,12.00
2023-02-19T08:01:19.293Z,11.90
2023-02-19T08:03:50.320Z,12.00
2023-02-19T08:06:18.080Z,12.30
2023-02-19T08:08:45.028Z,12.30
2023-02-19T08:11:30.804Z,12.20
2023-02-19T08:13:57.935Z,12.10
2023-02-19T08:16:40.752Z,11.90
2023-02-19T08:19:09.440Z,11.70
2023-02-19T08:21:36.384Z,11.60
2023-02-19T08:24:04.385Z,11.60
2023-02-19T08:26:32.491Z,11.50
2023-02-19T08:28:59.677Z,11.60
2023-02-19T08:31:27.275Z,11.70
2023-02-19T08:33:54.418Z,11.90
2023-02-19T08:36:21.470Z,11.80
2023-02-19T08:38:48.501Z,11.90
2023-02-19T08:41:15.861Z,12.00
2023-02-19T08:43:43.758Z,12.10
2023-02-19T08:46:11.884Z,12.10
2023-02-19T08:48:39.593Z,12.20
2023-02-19T08:51:09.802Z,12.30
2023-02-19T08:53:38.769Z,12.50
2023-02-19T08:56:10.770Z,12.50
2023-02-19T08:58:38.122Z,12.80
2023-02-19T09:01:13.374Z,13.10
2023-02-19T09:03:41.074Z,13.30
2023-02-19T09:06:11.234Z,13.30
2023-02-19T09:08:38.678Z,13.40
2023-02-19T09:11:07.409Z,13.50
2023-02-19T09:13:34.599Z,13.50
2023-02-19T09:16:04.121Z,13.30
2023-02-19T09:18:31.868Z,13.10
2023-02-19T09:21:04.737Z,13.30
2023-02-19T09:23:36.311Z,13.10
2023-02-19T09:26:07.038Z,13.10
2023-02-19T09:28:35.804Z,13.40
2023-02-19T09:31:06.847Z,13.60
2023-02-19T09:33:35.861Z,13.70
2023-02-19T09:36:03.808Z,13.80
2023-02-19T09:38:31.090Z,14.20
2023-02-19T09:41:00.131Z,14.30
2023-02-19T09:43:28.965Z,14.10
2023-02-19T09:46:08.026Z,14.20
2023-02-19T09:48:35.475Z,13.90
2023-02-19T09:51:03.444Z,14.20
2023-02-19T09:53:53.583Z,14.70
2023-02-19T09:56:42.396Z,14.80
2023-02-19T09:59:44.156Z,14.60
2023-02-19T10:02:32.473Z,14.90
2023-02-19T10:05:21.481Z,14.70
2023-02-19T10:08:18.103Z,14.40
2023-02-19T10:11:07.032Z,14.80
2023-02-19T10:14:14.682Z,14.80
2023-02-19T10:17:05.567Z,15.00
2023-02-19T10:19:54.060Z,14.80
2023-02-19T10:22:43.670Z,15.20
2023-02-19T10:25:33.343Z,15.50
2023-02-19T10:28:24.032Z,15.40
2023-02-19T10:31:21.616Z,16.60
2023-02-19T10:34:23.529Z,16.70
2023-02-19T10:37:17.499Z,17.50
2023-02-19T10:40:05.600Z,17.10
2023-02-19T10:43:05.073Z,16.70
2023-02-19T10:45:53.134Z,16.10
2023-02-19T10:48:29.335Z,16.90
2023-02-19T10:51:05.244Z,17.00
2023-02-19T10:54:02.730Z,18.00
2023-02-19T10:56:31.564Z,17.20
2023-02-19T10:59:18.619Z,16.80
2023-02-19T11:01:58.479Z,17.80
2023-02-19T11:04:29.492Z,17.90
2023-02-19T11:06:57.852Z,17.90
2023-02-19T11:09:38.372Z,17.90
2023-02-19T11:12:09.441Z,18.00
2023-02-19T11:14:37.186Z,18.60
2023-02-19T11:17:07.547Z,17.70
2023-02-19T11:19:39.189Z,16.60
2023-02-19T11:22:33.955Z,17.40
2023-02-19T11:25:17.907Z,17.50
2023-02-19T11:27:58.497Z,17.60
2023-02-19T11:30:35.179Z,17.30
2023-02-19T11:33:38.380Z,17.10
2023-02-19T11:36:24.716Z,18.50
2023-02-19T11:38:54.375Z,18.10
2023-02-19T11:41:30.498Z,17.20
2023-02-19T11:44:10.803Z,16.10
2023-02-19T11:46:56.506Z,16.00
2023-02-19T11:50:08.648Z,15.50
2023-02-19T11:52:42.658Z,15.50
2023-02-19T11:55:43.596Z,15.10
2023-02-19T11:58:40.444Z,14.90
2023-02-19T12:01:41.194Z,14.80
2023-02-19T12:04:32.933Z,14.20
2023-02-19T12:07:00.748Z,13.70
2023-02-19T12:09:49.340Z,13.50
2023-02-19T12:13:01.173Z,13.30
2023-02-19T12:16:06.251Z,13.10
2023-02-19T12:18:45.820Z,12.90
2023-02-19T12:21:13.307Z,12.80
2023-02-19T12:24:10.622Z,13.00
2023-02-19T12:26:46.922Z,12.90
2023-02-19T12:29:43.755Z,12.90
2023-02-19T12:33:03.052Z,13.00
2023-02-19T12:35:55.684Z,13.00
2023-02-19T12:38:38.142Z,13.00
2023-02-19T12:41:25.257Z,13.00
2023-02-19T12:43:59.771Z,13.10
2023-02-19T12:46:35.568Z,13.10
2023-02-19T12:49:22.011Z,13.40
2023-02-19T12:51:55.561Z,13.40
2023-02-19T12:54:30.738Z,13.70
2023-02-19T12:57:26.768Z,13.60
2023-02-19T13:00:05.105Z,14.00
2023-02-19T13:02:53.974Z,14.60
2023-02-19T13:05:47.017Z,15.20
2023-02-19T13:08:19.098Z,15.00
2023-02-19T13:10:58.380Z,14.40
2023-02-19T13:13:36.269Z,14.10
2023-02-19T13:16:10.306Z,14.20
2023-02-19T13:18:45.148Z,14.80
2023-02-19T13:21:35.308Z,15.60
2023-02-19T13:24:08.900Z,15.90
2023-02-19T13:26:52.378Z,15.60
2023-02-19T13:30:13.232Z,14.50
2023-02-19T13:33:00.130Z,14.30
2023-02-19T13:35:55.721Z,13.90
2023-02-19T13:38:24.610Z,13.70
2023-02-19T13:41:01.187Z,13.60
2023-02-19T13:43:34.910Z,13.30
2023-02-19T13:46:14.096Z,13.20
2023-02-19T13:48:44.927Z,13.10
2023-02-19T13:51:19.824Z,13.00
2023-02-19T13:53:54.486Z,12.90
2023-02-19T13:56:36.011Z,12.80
2023-02-19T13:59:25.040Z,12.60
2023-02-19T14:01:55.477Z,12.50
2023-02-19T14:05:01.587Z,12.50
2023-02-19T14:07:55.184Z,12.50
2023-02-19T14:11:02.833Z,12.40
2023-02-19T14:13:51.927Z,12.30
2023-02-19T14:16:43.915Z,12.20
2023-02-19T14:19:15.792Z,12.10
2023-02-19T14:21:44.487Z,12.20
2023-02-19T14:24:15.006Z,12.20
2023-02-19T14:26:43.454Z,12.10
2023-02-19T14:29:16.970Z,12.00
2023-02-19T14:31:47.510Z,11.90
2023-02-19T14:34:27.785Z,11.80
2023-02-19T14:37:01.686Z,11.90
2023-02-19T14:39:36.619Z,11.80
2023-02-19T14:42:32.974Z,11.70
2023-02-19T14:45:06.662Z,11.60
2023-02-19T14:47:37.216Z,11.40
2023-02-19T14:50:30.158Z,11.50
2023-02-19T14:53:01.542Z,11.50
2023-02-19T14:55:36.571Z,11.40
2023-02-19T14:58:15.581Z,11.40
2023-02-19T15:00:44.117Z,11.30
2023-02-19T15:03:51.342Z,11.30
2023-02-19T15:06:20.294Z,11.00
2023-02-19T15:08:58.217Z,11.00
2023-02-19T15:11:29.982Z,10.90
2023-02-19T15:14:06.492Z,10.80
2023-02-19T15:16:38.928Z,10.80
2023-02-19T15:19:10.827Z,10.70
2023-02-19T15:21:43.860Z,10.60
2023-02-19T15:24:15.245Z,10.50
2023-02-19T15:26:48.325Z,10.50
2023-02-19T15:29:19.260Z,10.50
2023-02-19T15:31:57.999Z,10.30
2023-02-19T15:34:31.863Z,10.20
2023-02-19T15:37:06.292Z,10.00
2023-02-19T15:39:59.911Z,10.00
2023-02-19T15:42:33.764Z,9.70
2023-02-19T15:45:23.605Z,9.70
2023-02-19T15:48:03.793Z,9.80
2023-02-19T15:50:37.313Z,9.80
2023-02-19T15:53:28.284Z,9.80
2023-02-19T15:56:08.400Z,9.70
2023-02-19T15:58:41.011Z,9.60
2023-02-19T16:01:23.634Z,9.50
2023-02-19T16:03:54.565Z,9.60
2023-02-19T16:06:24.705Z,9.50
2023-02-19T16:08:55.669Z,9.50
2023-02-19T16:11:30.898Z,9.40
2023-02-19T16:14:34.317Z,9.30
2023-02-19T16:17:11.268Z,9.30
2023-02-19T16:19:57.920Z,9.20
2023-02-19T16:22:30.093Z,9.10
2023-02-19T16:25:06.550Z,8.90
2023-02-19T16:27:41.234Z,9.00
2023-02-19T16:30:18.369Z,8.90
2023-02-19T16:32:47.424Z,8.80
2023-02-19T16:35:40.678Z,8.80
2023-02-19T16:38:17.511Z,8.70
2023-02-19T16:40:52.136Z,8.60
2023-02-19T16:43:40.523Z,8.60
2023-02-19T16:46:12.250Z,8.60
2023-02-19T16:48:41.731Z,8.60
2023-02-19T16:51:13.878Z,8.60
2023-02-19T16:53:42.239Z,8.70
2023-02-19T16:56:22.923Z,8.70
2023-02-19T16:58:51.672Z,8.60
2023-02-19T17:01:19.478Z,8.70
2023-02-19T17:03:49.262Z,8.50
2023-02-19T17:06:19.418Z,8.50
2023-02-19T17:08:47.783Z,8.50
2023-02-19T17:11:17.899Z,8.60
2023-02-19T17:13:47.742Z,8.60
2023-02-19T17:16:28.106Z,8.60
2023-02-19T17:18:57.074Z,8.60
2023-02-19T17:21:30.900Z,8.50
2023-02-19T17:24:00.240Z,8.50
2023-02-19T17:26:29.948Z,8.50
2023-02-19T17:28:58.812Z,8.50
2023-02-19T17:31:26.958Z,8.40
2023-02-19T17:33:55.201Z,8.40
2023-02-19T17:36:33.124Z,8.40
2023-02-19T17:39:04.920Z,8.50
2023-02-19T17:41:35.105Z,8.50
2023-02-19T17:44:04.815Z,8.40
2023-02-19T17:46:37.317Z,8.30
2023-02-19T17:49:08.227Z,8.30
2023-02-19T17:51:36.730Z,8.30
2023-02-19T17:54:06.341Z,8.30
2023-02-19T17:56:37.590Z,8.20
2023-02-19T17:59:05.869Z,8.20
2023-02-19T18:01:36.742Z,8.30
2023-02-19T18:04:06.668Z,8.30
2023-02-19T18:06:36.509Z,8.30
2023-02-19T18:09:05.515Z,8.30
2023-02-19T18:11:33.390Z,8.20
2023-02-19T18:14:03.807Z,8.20
2023-02-19T18:16:35.652Z,8.10
2023-02-19T18:19:05.122Z,8.10
2023-02-19T18:21:36.394Z,8.20
2023-02-19T18:24:08.767Z,8.30
2023-02-19T18:26:37.032Z,8.20
2023-02-19T18:29:06.818Z,8.30
2023-02-19T18:31:40.777Z,8.20
2023-02-19T18:34:19.967Z,8.20
2023-02-19T18:36:49.413Z,8.20
2023-02-19T18:39:20.656Z,8.20
2023-02-19T18:41:51.964Z,8.20
2023-02-19T18:44:25.766Z,8.20
2023-02-19T18:46:54.418Z,8.20
2023-02-19T18:49:22.098Z,8.20
2023-02-19T18:51:50.616Z,8.20
2023-02-19T18:54:27.022Z,8.20
2023-02-19T18:56:56.213Z,8.10
2023-02-19T18:59:24.993Z,8.20
2023-02-19T19:01:54.857Z,8.20
2023-02-19T19:04:24.431Z,8.20
2023-02-19T19:06:53.713Z,8.30
2023-02-19T19:09:21.557Z,8.20
2023-02-19T19:11:51.112Z,8.30
2023-02-19T19:14:19.028Z,8.30
2023-02-19T19:16:46.763Z,8.30
2023-02-19T19:19:16.200Z,8.20
2023-02-19T19:21:48.755Z,8.20
2023-02-19T19:24:17.228Z,8.20
2023-02-19T19:26:50.331Z,8.30
2023-02-19T19:29:22.993Z,8.20
2023-02-19T19:31:51.414Z,8.20
2023-02-19T19:34:19.885Z,8.30
2023-02-19T19:36:48.165Z,8.30
2023-02-19T19:39:17.717Z,8.40
2023-02-19T19:41:49.412Z,8.30
2023-02-19T19:44:28.841Z,8.30
2023-02-19T19:47:01.369Z,8.30
2023-02-19T19:49:29.386Z,8.30
2023-02-19T19:52:01.644Z,8.30
2023-02-19T19:54:31.395Z,8.30
2023-02-19T19:57:02.137Z,8.20
2023-02-19T19:59:33.554Z,8.30
2023-02-19T20:02:04.135Z,8.30
2023-02-19T20:04:33.229Z,8.30
2023-02-19T20:07:01.493Z,8.30
2023-02-19T20:09:30.984Z,8.30
2023-02-19T20:12:01.652Z,8.30
2023-02-19T20:14:29.621Z,8.20
2023-02-19T20:16:57.486Z,8.20
2023-02-19T20:19:25.994Z,8.20
2023-02-19T20:21:56.182Z,8.20
2023-02-19T20:24:26.979Z,8.20
2023-02-19T20:27:00.880Z,8.20
2023-02-19T20:29:32.029Z,8.20
2023-02-19T20:32:03.128Z,8.10
2023-02-19T20:34:33.029Z,8.20
2023-02-19T20:37:03.576Z,8.20
2023-02-19T20:39:33.230Z,8.20
2023-02-19T20:42:02.732Z,8.20
2023-02-19T20:44:32.629Z,8.10
2023-02-19T20:47:01.727Z,8.20
2023-02-19T20:49:35.260Z,8.20
2023-02-19T20:52:09.882Z,8.20
2023-02-19T20:54:42.131Z,8.20
2023-02-19T20:57:10.853Z,8.20
2023-02-19T20:59:47.627Z,8.20
2023-02-19T21:02:22.333Z,8.20
2023-02-19T21:04:53.058Z,8.20
2023-02-19T21:07:20.945Z,8.20
2023-02-19T21:09:50.434Z,8.10
2023-02-19T21:12:20.392Z,8.10
2023-02-19T21:14:50.053Z,8.00
2023-02-19T21:17:18.786Z,8.10
2023-02-19T21:19:50.045Z,8.00
2023-02-19T21:22:18.484Z,8.00
2023-02-19T21:24:49.970Z,8.10
2023-02-19T21:27:18.831Z,8.00
2023-02-19T21:29:48.578Z,7.90
2023-02-19T21:32:16.422Z,7.90
2023-02-19T21:34:44.662Z,7.80
2023-02-19T21:37:11.981Z,7.70
2023-02-19T21:39:39.502Z,7.70
2023-02-19T21:42:06.791Z,7.60
2023-02-19T21:44:35.612Z,7.50
2023-02-19T21:47:04.316Z,7.60
2023-02-19T21:49:31.944Z,7.50
2023-02-19T21:51:59.342Z,7.60
2023-02-19T21:54:26.792Z,7.50
2023-02-19T21:56:54.824Z,7.50
2023-02-19T21:59:25.105Z,7.40
2023-02-19T22:01:54.108Z,7.50
2023-02-19T22:04:24.540Z,7.30
2023-02-19T22:06:55.474Z,7.40
2023-02-19T22:09:22.843Z,7.30
2023-02-19T22:11:50.422Z,7.30
2023-02-19T22:14:17.751Z,7.30
2023-02-19T22:16:44.885Z,7.40
2023-02-19T22:19:12.892Z,7.40
2023-02-19T22:21:44.079Z,7.40
2023-02-19T22:24:17.101Z,7.30
2023-02-19T22:26:45.010Z,7.30
2023-02-19T22:29:14.425Z,7.40
2023-02-19T22:31:41.814Z,7.30
2023-02-19T22:34:09.874Z,7.20
2023-02-19T22:36:40.514Z,7.10
2023-02-19T22:39:16.112Z,7.20
2023-02-19T22:41:43.720Z,7.20
2023-02-19T22:44:11.477Z,7.10
2023-02-19T22:46:38.593Z,7.10
2023-02-19T22:49:07.334Z,7.00
2023-02-19T22:51:38.326Z,7.00
2023-02-19T22:54:05.365Z,7.00
2023-02-19T22:56:32.460Z,7.00
2023-02-19T22:58:59.515Z,7.00
2023-02-19T23:01:26.606Z,6.90
2023-02-19T23:04:12.940Z,6.80
2023-02-19T23:06:42.773Z,6.70
2023-02-19T23:09:16.495Z,6.70
2023-02-19T23:11:44.443Z,6.60
2023-02-19T23:14:13.119Z,6.60
2023-02-19T23:16:40.156Z,6.70
2023-02-19T23:19:11.482Z,6.60
2023-02-19T23:21:40.385Z,6.70
2023-02-19T23:24:07.891Z,6.70
2023-02-19T23:26:35.868Z,6.70
2023-02-19T23:29:03.402Z,6.70
2023-02-19T23:31:30.564Z,6.60
2023-02-19T23:33:58.994Z,6.60
2023-02-19T23:36:26.210Z,6.60
2023-02-19T23:38:53.440Z,6.50
2023-02-19T23:41:20.447Z,6.40
2023-02-19T23:43:47.429Z,6.40
2023-02-19T23:46:17.504Z,6.40
2023-02-19T23:48:47.156Z,6.20
2023-02-19T23:51:15.426Z,6.30
2023-02-19T23:53:42.394Z,6.20
2023-02-19T23:56:11.087Z,6.10
2023-02-19T23:58:38.731Z,6.10
